sensor_id;sensor_type;location;lat;lon;timestamp;temperature;humidity
18218;DHT22;9234;49.344;11.120;2023-06-01T00:00:35;12.50;89.40
18218;DHT22;9234;49.344;11.120;2023-06-01T00:03:06;12.40;89.50
18218;DHT22;9234;49.344;11.120;2023-06-01T00:05:34;12.40;89.90
18218;DHT22;9234;49.344;11.120;2023-06-01T00:08:03;12.30;90.10
18218;DHT22;9234;49.344;11.120;2023-06-01T00:10:32;12.30;90.00
18218;DHT22;9234;49.344;11.120;2023-06-01T00:13:02;12.20;89.70
18218;DHT22;9234;49.344;11.120;2023-06-01T00:15:30;12.20;89.60
18218;DHT22;9234;49.344;11.120;2023-06-01T00:17:59;12.20;89.70
18218;DHT22;9234;49.344;11.120;2023-06-01T00:20:27;12.10;89.60
18218;DHT22;9234;49.344;11.120;2023-06-01T00:22:58;12.10;89.70
18218;DHT22;9234;49.344;11.120;2023-06-01T00:25:30;12.10;89.70
18218;DHT22;9234;49.344;11.120;2023-06-01T00:27:58;12.00;90.00
18218;DHT22;9234;49.344;11.120;2023-06-01T00:30:30;12.00;90.10
18218;DHT22;9234;49.344;11.120;2023-06-01T00:32:58;11.90;90.10
18218;DHT22;9234;49.344;11.120;2023-06-01T00:35:27;11.90;90.30
18218;DHT22;9234;49.344;11.120;2023-06-01T00:37:55;11.90;90.40
18218;DHT22;9234;49.344;11.120;2023-06-01T00:40:23;11.90;90.40
18218;DHT22;9234;49.344;11.120;2023-06-01T00:42:52;11.80;91.10
18218;DHT22;9234;49.344;11.120;2023-06-01T00:45:20;11.80;91.10
18218;DHT22;9234;49.344;11.120;2023-06-01T00:47:50;11.80;91.70
18218;DHT22;9234;49.344;11.120;2023-06-01T00:50:18;11.70;92.00
18218;DHT22;9234;49.344;11.120;2023-06-01T00:52:49;11.70;92.30
18218;DHT22;9234;49.344;11.120;2023-06-01T00:55:19;11.60;92.40
18218;DHT22;9234;49.344;11.120;2023-06-01T00:57:48;11.60;92.50
18218;DHT22;9234;49.344;11.120;2023-06-01T01:00:18;11.50;92.50
18218;DHT22;9234;49.344;11.120;2023-06-01T01:02:47;11.50;92.30
18218;DHT22;9234;49.344;11.120;2023-06-01T01:05:19;11.50;92.50
18218;DHT22;9234;49.344;11.120;2023-06-01T01:07:55;11.40;92.70
18218;DHT22;9234;49.344;11.120;2023-06-01T01:10:32;11.40;92.80
18218;DHT22;9234;49.344;11.120;2023-06-01T01:13:09;11.30;93.20
18218;DHT22;9234;49.344;11.120;2023-06-01T01:15:45;11.30;93.50
18218;DHT22;9234;49.344;11.120;2023-06-01T01:18:25;11.30;93.70
18218;DHT22;9234;49.344;11.120;2023-06-01T01:21:02;11.20;93.70
18218;DHT22;9234;49.344;11.120;2023-06-01T01:24:01;11.20;93.60
18218;DHT22;9234;49.344;11.120;2023-06-01T01:26:50;11.10;93.60
18218;DHT22;9234;49.344;11.120;2023-06-01T01:29:26;11.10;93.70
18218;DHT22;9234;49.344;11.120;2023-06-01T01:31:56;11.00;93.80
18218;DHT22;9234;49.344;11.120;2023-06-01T01:34:28;11.00;93.90
18218;DHT22;9234;49.344;11.120;2023-06-01T01:36:58;10.90;94.10
18218;DHT22;9234;49.344;11.120;2023-06-01T01:39:27;10.90;94.30
18218;DHT22;9234;49.344;11.120;2023-06-01T01:41:55;10.90;94.40
18218;DHT22;9234;49.344;11.120;2023-06-01T01:44:25;10.90;94.50
18218;DHT22;9234;49.344;11.120;2023-06-01T01:46:58;10.80;94.60
18218;DHT22;9234;49.344;11.120;2023-06-01T01:49:40;10.80;94.70
18218;DHT22;9234;49.344;11.120;2023-06-01T01:52:15;10.80;94.70
18218;DHT22;9234;49.344;11.120;2023-06-01T01:54:47;10.80;94.90
18218;DHT22;9234;49.344;11.120;2023-06-01T01:57:18;10.70;94.90
18218;DHT22;9234;49.344;11.120;2023-06-01T01:59:49;10.70;94.90
18218;DHT22;9234;49.344;11.120;2023-06-01T02:02:18;10.70;95.10
18218;DHT22;9234;49.344;11.120;2023-06-01T02:04:47;10.60;95.20
18218;DHT22;9234;49.344;11.120;2023-06-01T02:07:16;10.60;95.40
18218;DHT22;9234;49.344;11.120;2023-06-01T02:09:44;10.60;95.70
18218;DHT22;9234;49.344;11.120;2023-06-01T02:12:13;10.50;95.90
18218;DHT22;9234;49.344;11.120;2023-06-01T02:14:41;10.50;96.10
18218;DHT22;9234;49.344;11.120;2023-06-01T02:17:11;10.50;96.20
18218;DHT22;9234;49.344;11.120;2023-06-01T02:19:42;10.40;96.30
18218;DHT22;9234;49.344;11.120;2023-06-01T02:22:11;10.40;96.20
18218;DHT22;9234;49.344;11.120;2023-06-01T02:24:39;10.30;96.20
18218;DHT22;9234;49.344;11.120;2023-06-01T02:27:07;10.30;96.40
18218;DHT22;9234;49.344;11.120;2023-06-01T02:29:36;10.30;96.40
18218;DHT22;9234;49.344;11.120;2023-06-01T02:32:04;10.20;96.60
18218;DHT22;9234;49.344;11.120;2023-06-01T02:34:35;10.20;96.70
18218;DHT22;9234;49.344;11.120;2023-06-01T02:37:04;10.20;96.70
18218;DHT22;9234;49.344;11.120;2023-06-01T02:39:33;10.10;96.80
18218;DHT22;9234;49.344;11.120;2023-06-01T02:42:02;10.10;96.90
18218;DHT22;9234;49.344;11.120;2023-06-01T02:44:31;10.10;97.00
18218;DHT22;9234;49.344;11.120;2023-06-01T02:46:59;10.10;97.00
18218;DHT22;9234;49.344;11.120;2023-06-01T02:49:28;10.00;97.10
18218;DHT22;9234;49.344;11.120;2023-06-01T02:51:58;10.00;97.20
18218;DHT22;9234;49.344;11.120;2023-06-01T02:54:26;10.00;97.20
18218;DHT22;9234;49.344;11.120;2023-06-01T02:56:55;10.00;97.20
18218;DHT22;9234;49.344;11.120;2023-06-01T02:59:33;10.00;97.40
18218;DHT22;9234;49.344;11.120;2023-06-01T03:02:03;9.90;97.40
18218;DHT22;9234;49.344;11.120;2023-06-01T03:04:31;9.90;97.60
18218;DHT22;9234;49.344;11.120;2023-06-01T03:07:02;9.90;97.60
18218;DHT22;9234;49.344;11.120;2023-06-01T03:09:45;9.90;97.80
18218;DHT22;9234;49.344;11.120;2023-06-01T03:12:26;9.80;98.10
18218;DHT22;9234;49.344;11.120;2023-06-01T03:14:55;9.70;98.30
18218;DHT22;9234;49.344;11.120;2023-06-01T03:17:23;9.70;98.30
18218;DHT22;9234;49.344;11.120;2023-06-01T03:19:52;9.70;98.30
18218;DHT22;9234;49.344;11.120;2023-06-01T03:22:23;9.70;98.20
18218;DHT22;9234;49.344;11.120;2023-06-01T03:24:51;9.70;98.10
18218;DHT22;9234;49.344;11.120;2023-06-01T03:27:27;9.60;98.30
18218;DHT22;9234;49.344;11.120;2023-06-01T03:29:55;9.60;98.40
18218;DHT22;9234;49.344;11.120;2023-06-01T03:32:23;9.60;98.40
18218;DHT22;9234;49.344;11.120;2023-06-01T03:34:54;9.60;98.40
18218;DHT22;9234;49.344;11.120;2023-06-01T03:37:23;9.50;98.30
18218;DHT22;9234;49.344;11.120;2023-06-01T03:39:52;9.60;98.30
18218;DHT22;9234;49.344;11.120;2023-06-01T03:42:22;9.50;98.40
18218;DHT22;9234;49.344;11.120;2023-06-01T03:44:51;9.50;98.60
18218;DHT22;9234;49.344;11.120;2023-06-01T03:47:19;9.60;98.80
18218;DHT22;9234;49.344;11.120;2023-06-01T03:49:47;9.50;99.00
18218;DHT22;9234;49.344;11.120;2023-06-01T03:52:16;9.50;99.10
18218;DHT22;9234;49.344;11.120;2023-06-01T03:54:46;9.50;99.20
18218;DHT22;9234;49.344;11.120;2023-06-01T03:57:33;9.50;99.30
18218;DHT22;9234;49.344;11.120;2023-06-01T04:00:01;9.50;99.40
18218;DHT22;9234;49.344;11.120;2023-06-01T04:02:53;9.50;99.60
18218;DHT22;9234;49.344;11.120;2023-06-01T04:05:24;9.50;99.80
18218;DHT22;9234;49.344;11.120;2023-06-01T04:07:54;9.60;99.90
18218;DHT22;9234;49.344;11.120;2023-06-01T04:10:24;9.50;99.90
18218;DHT22;9234;49.344;11.120;2023-06-01T04:12:53;9.60;99.90
18218;DHT22;9234;49.344;11.120;2023-06-01T04:15:25;9.60;99.90
18218;DHT22;9234;49.344;11.120;2023-06-01T04:17:53;9.60;99.90
18218;DHT22;9234;49.344;11.120;2023-06-01T04:20:22;9.60;99.90
18218;DHT22;9234;49.344;11.120;2023-06-01T04:22:51;9.70;99.90
18218;DHT22;9234;49.344;11.120;2023-06-01T04:25:20;9.70;99.90
18218;DHT22;9234;49.344;11.120;2023-06-01T04:27:51;9.70;99.90
18218;DHT22;9234;49.344;11.120;2023-06-01T04:30:23;9.80;99.90
18218;DHT22;9234;49.344;11.120;2023-06-01T04:32:51;9.80;99.90
18218;DHT22;9234;49.344;11.120;2023-06-01T04:35:21;9.90;99.90
18218;DHT22;9234;49.344;11.120;2023-06-01T04:37:50;9.90;99.90
18218;DHT22;9234;49.344;11.120;2023-06-01T04:40:18;10.00;99.90
18218;DHT22;9234;49.344;11.120;2023-06-01T04:42:46;10.10;99.90
18218;DHT22;9234;49.344;11.120;2023-06-01T04:45:24;10.10;99.90
18218;DHT22;9234;49.344;11.120;2023-06-01T04:47:53;10.20;99.90
18218;DHT22;9234;49.344;11.120;2023-06-01T04:50:33;10.20;99.90
18218;DHT22;9234;49.344;11.120;2023-06-01T04:53:01;10.30;99.90
18218;DHT22;9234;49.344;11.120;2023-06-01T04:55:30;10.40;99.90
18218;DHT22;9234;49.344;11.120;2023-06-01T04:57:58;10.50;99.90
18218;DHT22;9234;49.344;11.120;2023-06-01T05:00:30;10.60;99.90
18218;DHT22;9234;49.344;11.120;2023-06-01T05:02:58;10.70;99.90
18218;DHT22;9234;49.344;11.120;2023-06-01T05:05:27;10.80;99.90
18218;DHT22;9234;49.344;11.120;2023-06-01T05:07:55;10.90;99.90
18218;DHT22;9234;49.344;11.120;2023-06-01T05:10:23;11.10;99.90
18218;DHT22;9234;49.344;11.120;2023-06-01T05:12:52;11.10;99.90
18218;DHT22;9234;49.344;11.120;2023-06-01T05:15:20;11.30;99.90
18218;DHT22;9234;49.344;11.120;2023-06-01T05:17:50;11.40;99.90
18218;DHT22;9234;49.344;11.120;2023-06-01T05:20:19;11.50;99.90
18218;DHT22;9234;49.344;11.120;2023-06-01T05:22:58;11.60;99.90
18218;DHT22;9234;49.344;11.120;2023-06-01T05:25:27;11.70;99.90
18218;DHT22;9234;49.344;11.120;2023-06-01T05:27:55;11.90;99.90
18218;DHT22;9234;49.344;11.120;2023-06-01T05:30:24;12.00;99.90
18218;DHT22;9234;49.344;11.120;2023-06-01T05:32:54;12.10;99.90
18218;DHT22;9234;49.344;11.120;2023-06-01T05:35:23;12.30;99.90
18218;DHT22;9234;49.344;11.120;2023-06-01T05:37:52;12.50;99.90
18218;DHT22;9234;49.344;11.120;2023-06-01T05:40:20;12.60;99.90
18218;DHT22;9234;49.344;11.120;2023-06-01T05:42:48;12.80;99.90
18218;DHT22;9234;49.344;11.120;2023-06-01T05:45:17;12.90;99.90
18218;DHT22;9234;49.344;11.120;2023-06-01T05:47:46;13.10;99.90
18218;DHT22;9234;49.344;11.120;2023-06-01T05:50:16;13.20;99.90
18218;DHT22;9234;49.344;11.120;2023-06-01T05:52:45;13.30;99.80
18218;DHT22;9234;49.344;11.120;2023-06-01T05:55:13;13.40;99.60
18218;DHT22;9234;49.344;11.120;2023-06-01T05:57:41;13.60;99.40
18218;DHT22;9234;49.344;11.120;2023-06-01T06:00:11;13.70;99.20
18218;DHT22;9234;49.344;11.120;2023-06-01T06:02:42;13.80;98.80
18218;DHT22;9234;49.344;11.120;2023-06-01T06:05:11;14.00;98.50
18218;DHT22;9234;49.344;11.120;2023-06-01T06:07:41;14.10;98.10
18218;DHT22;9234;49.344;11.120;2023-06-01T06:10:12;14.30;97.10
18218;DHT22;9234;49.344;11.120;2023-06-01T06:12:40;14.50;96.40
18218;DHT22;9234;49.344;11.120;2023-06-01T06:15:10;14.60;96.10
18218;DHT22;9234;49.344;11.120;2023-06-01T06:17:38;14.80;95.80
18218;DHT22;9234;49.344;11.120;2023-06-01T06:20:07;14.90;95.70
18218;DHT22;9234;49.344;11.120;2023-06-01T06:22:36;15.00;95.50
18218;DHT22;9234;49.344;11.120;2023-06-01T06:25:07;15.20;95.30
18218;DHT22;9234;49.344;11.120;2023-06-01T06:27:38;15.30;94.90
18218;DHT22;9234;49.344;11.120;2023-06-01T06:30:08;15.40;94.70
18218;DHT22;9234;49.344;11.120;2023-06-01T06:32:36;15.60;94.90
18218;DHT22;9234;49.344;11.120;2023-06-01T06:35:05;15.70;94.20
18218;DHT22;9234;49.344;11.120;2023-06-01T06:37:34;15.80;94.00
18218;DHT22;9234;49.344;11.120;2023-06-01T06:40:03;16.00;93.70
18218;DHT22;9234;49.344;11.120;2023-06-01T06:42:34;16.10;93.00
18218;DHT22;9234;49.344;11.120;2023-06-01T06:45:04;16.30;92.90
18218;DHT22;9234;49.344;11.120;2023-06-01T06:47:33;16.40;92.90
18218;DHT22;9234;49.344;11.120;2023-06-01T06:50:02;16.50;92.50
18218;DHT22;9234;49.344;11.120;2023-06-01T06:52:30;16.70;92.50
18218;DHT22;9234;49.344;11.120;2023-06-01T06:54:59;16.80;92.20
18218;DHT22;9234;49.344;11.120;2023-06-01T06:57:28;17.00;92.00
18218;DHT22;9234;49.344;11.120;2023-06-01T06:59:57;17.10;91.80
18218;DHT22;9234;49.344;11.120;2023-06-01T07:02:26;17.30;91.20
18218;DHT22;9234;49.344;11.120;2023-06-01T07:04:54;17.40;91.00
18218;DHT22;9234;49.344;11.120;2023-06-01T07:07:22;17.60;90.30
18218;DHT22;9234;49.344;11.120;2023-06-01T07:09:51;17.70;89.80
18218;DHT22;9234;49.344;11.120;2023-06-01T07:12:19;17.90;89.20
18218;DHT22;9234;49.344;11.120;2023-06-01T07:14:48;18.00;88.50
18218;DHT22;9234;49.344;11.120;2023-06-01T07:17:20;18.20;88.00
18218;DHT22;9234;49.344;11.120;2023-06-01T07:19:48;18.30;87.80
18218;DHT22;9234;49.344;11.120;2023-06-01T07:22:17;18.50;86.30
18218;DHT22;9234;49.344;11.120;2023-06-01T07:24:47;18.60;86.20
18218;DHT22;9234;49.344;11.120;2023-06-01T07:27:16;18.70;85.20
18218;DHT22;9234;49.344;11.120;2023-06-01T07:29:44;18.90;83.60
18218;DHT22;9234;49.344;11.120;2023-06-01T07:32:13;19.10;83.80
18218;DHT22;9234;49.344;11.120;2023-06-01T07:34:42;19.20;83.10
18218;DHT22;9234;49.344;11.120;2023-06-01T07:37:11;19.40;82.30
18218;DHT22;9234;49.344;11.120;2023-06-01T07:39:46;19.60;81.70
18218;DHT22;9234;49.344;11.120;2023-06-01T07:42:15;19.70;81.10
18218;DHT22;9234;49.344;11.120;2023-06-01T07:44:45;19.80;80.80
18218;DHT22;9234;49.344;11.120;2023-06-01T07:47:13;20.00;80.20
18218;DHT22;9234;49.344;11.120;2023-06-01T07:49:43;20.20;78.40
18218;DHT22;9234;49.344;11.120;2023-06-01T07:52:11;20.30;78.40
18218;DHT22;9234;49.344;11.120;2023-06-01T07:54:40;20.50;78.00
18218;DHT22;9234;49.344;11.120;2023-06-01T07:57:09;20.70;77.80
18218;DHT22;9234;49.344;11.120;2023-06-01T07:59:37;20.90;76.00
18218;DHT22;9234;49.344;11.120;2023-06-01T08:02:06;21.10;75.90
18218;DHT22;9234;49.344;11.120;2023-06-01T08:04:34;21.20;75.00
18218;DHT22;9234;49.344;11.120;2023-06-01T08:07:04;21.40;74.30
18218;DHT22;9234;49.344;11.120;2023-06-01T08:09:34;21.60;74.40
18218;DHT22;9234;49.344;11.120;2023-06-01T08:12:04;21.80;74.00
18218;DHT22;9234;49.344;11.120;2023-06-01T08:14:34;22.00;73.20
18218;DHT22;9234;49.344;11.120;2023-06-01T08:17:02;22.10;72.10
18218;DHT22;9234;49.344;11.120;2023-06-01T08:19:34;22.30;70.70
18218;DHT22;9234;49.344;11.120;2023-06-01T08:22:05;22.50;69.80
18218;DHT22;9234;49.344;11.120;2023-06-01T08:24:34;22.70;69.50
18218;DHT22;9234;49.344;11.120;2023-06-01T08:27:15;22.80;68.40
18218;DHT22;9234;49.344;11.120;2023-06-01T08:29:45;22.90;67.90
18218;DHT22;9234;49.344;11.120;2023-06-01T08:32:16;23.10;67.50
18218;DHT22;9234;49.344;11.120;2023-06-01T08:34:45;23.30;67.60
18218;DHT22;9234;49.344;11.120;2023-06-01T08:37:15;23.40;65.40
18218;DHT22;9234;49.344;11.120;2023-06-01T08:39:44;23.60;65.30
18218;DHT22;9234;49.344;11.120;2023-06-01T08:42:15;23.70;63.60
18218;DHT22;9234;49.344;11.120;2023-06-01T08:44:53;23.90;62.80
18218;DHT22;9234;49.344;11.120;2023-06-01T08:47:24;24.00;63.10
18218;DHT22;9234;49.344;11.120;2023-06-01T08:49:53;24.10;61.30
18218;DHT22;9234;49.344;11.120;2023-06-01T08:52:29;24.20;61.00
18218;DHT22;9234;49.344;11.120;2023-06-01T08:54:59;24.30;59.60
18218;DHT22;9234;49.344;11.120;2023-06-01T08:57:28;24.40;59.10
18218;DHT22;9234;49.344;11.120;2023-06-01T08:59:57;24.60;57.90
18218;DHT22;9234;49.344;11.120;2023-06-01T09:02:26;24.70;56.50
18218;DHT22;9234;49.344;11.120;2023-06-01T09:04:55;24.90;56.30
18218;DHT22;9234;49.344;11.120;2023-06-01T09:07:23;25.10;55.70
18218;DHT22;9234;49.344;11.120;2023-06-01T09:09:53;25.40;54.00
18218;DHT22;9234;49.344;11.120;2023-06-01T09:12:23;25.60;52.00
18218;DHT22;9234;49.344;11.120;2023-06-01T09:15:07;25.80;51.30
18218;DHT22;9234;49.344;11.120;2023-06-01T09:17:38;26.00;50.50
18218;DHT22;9234;49.344;11.120;2023-06-01T09:20:12;26.20;50.60
18218;DHT22;9234;49.344;11.120;2023-06-01T09:22:42;26.40;51.80
18218;DHT22;9234;49.344;11.120;2023-06-01T09:25:14;26.60;51.70
18218;DHT22;9234;49.344;11.120;2023-06-01T09:27:45;26.80;51.20
18218;DHT22;9234;49.344;11.120;2023-06-01T09:30:17;27.00;50.80
18218;DHT22;9234;49.344;11.120;2023-06-01T09:32:47;27.20;50.10
18218;DHT22;9234;49.344;11.120;2023-06-01T09:35:39;27.30;48.80
18218;DHT22;9234;49.344;11.120;2023-06-01T09:38:09;27.50;49.50
18218;DHT22;9234;49.344;11.120;2023-06-01T09:40:41;27.60;47.60
18218;DHT22;9234;49.344;11.120;2023-06-01T09:43:23;27.70;47.30
18218;DHT22;9234;49.344;11.120;2023-06-01T09:46:07;27.90;46.60
18218;DHT22;9234;49.344;11.120;2023-06-01T09:48:36;28.10;45.10
18218;DHT22;9234;49.344;11.120;2023-06-01T09:51:05;28.10;45.10
18218;DHT22;9234;49.344;11.120;2023-06-01T09:53:48;28.00;44.90
18218;DHT22;9234;49.344;11.120;2023-06-01T09:56:18;28.10;45.20
18218;DHT22;9234;49.344;11.120;2023-06-01T09:58:47;28.20;45.30
18218;DHT22;9234;49.344;11.120;2023-06-01T10:01:16;28.30;45.40
18218;DHT22;9234;49.344;11.120;2023-06-01T10:03:46;28.60;44.50
18218;DHT22;9234;49.344;11.120;2023-06-01T10:06:20;28.80;45.40
18218;DHT22;9234;49.344;11.120;2023-06-01T10:08:48;29.10;44.60
18218;DHT22;9234;49.344;11.120;2023-06-01T10:11:19;29.10;42.60
18218;DHT22;9234;49.344;11.120;2023-06-01T10:13:48;29.30;43.70
18218;DHT22;9234;49.344;11.120;2023-06-01T10:16:16;29.40;42.90
18218;DHT22;9234;49.344;11.120;2023-06-01T10:18:45;29.50;42.20
18218;DHT22;9234;49.344;11.120;2023-06-01T10:21:15;29.60;41.00
18218;DHT22;9234;49.344;11.120;2023-06-01T10:23:46;29.70;40.70
18218;DHT22;9234;49.344;11.120;2023-06-01T10:26:16;29.80;38.50
18218;DHT22;9234;49.344;11.120;2023-06-01T10:28:48;29.80;39.40
18218;DHT22;9234;49.344;11.120;2023-06-01T10:31:39;29.90;40.10
18218;DHT22;9234;49.344;11.120;2023-06-01T10:34:09;29.70;38.40
18218;DHT22;9234;49.344;11.120;2023-06-01T10:37:15;29.40;38.10
18218;DHT22;9234;49.344;11.120;2023-06-01T10:39:44;29.30;38.80
18218;DHT22;9234;49.344;11.120;2023-06-01T10:42:41;29.10;39.30
18218;DHT22;9234;49.344;11.120;2023-06-01T10:45:36;29.10;41.00
18218;DHT22;9234;49.344;11.120;2023-06-01T10:48:07;29.20;40.60
18218;DHT22;9234;49.344;11.120;2023-06-01T10:50:38;29.30;40.80
18218;DHT22;9234;49.344;11.120;2023-06-01T10:53:24;29.50;41.40
18218;DHT22;9234;49.344;11.120;2023-06-01T10:59:12;29.80;39.10
18218;DHT22;9234;49.344;11.120;2023-06-01T11:01:46;30.00;39.70
18218;DHT22;9234;49.344;11.120;2023-06-01T11:04:15;30.40;39.80
18218;DHT22;9234;49.344;11.120;2023-06-01T11:06:44;30.40;38.30
18218;DHT22;9234;49.344;11.120;2023-06-01T11:09:13;30.50;37.20
18218;DHT22;9234;49.344;11.120;2023-06-01T11:12:01;30.50;37.00
18218;DHT22;9234;49.344;11.120;2023-06-01T11:14:31;30.70;37.50
18218;DHT22;9234;49.344;11.120;2023-06-01T11:17:26;30.80;39.10
18218;DHT22;9234;49.344;11.120;2023-06-01T11:19:58;30.70;39.10
18218;DHT22;9234;49.344;11.120;2023-06-01T11:22:38;30.60;39.10
18218;DHT22;9234;49.344;11.120;2023-06-01T11:25:08;30.50;39.90
18218;DHT22;9234;49.344;11.120;2023-06-01T11:27:43;30.60;39.50
18218;DHT22;9234;49.344;11.120;2023-06-01T11:30:18;30.50;38.90
18218;DHT22;9234;49.344;11.120;2023-06-01T11:32:50;30.30;39.80
18218;DHT22;9234;49.344;11.120;2023-06-01T11:35:21;30.40;40.20
18218;DHT22;9234;49.344;11.120;2023-06-01T11:37:54;30.70;40.30
18218;DHT22;9234;49.344;11.120;2023-06-01T11:40:24;31.00;39.70
18218;DHT22;9234;49.344;11.120;2023-06-01T11:42:58;31.10;39.50
18218;DHT22;9234;49.344;11.120;2023-06-01T11:45:29;31.20;39.10
18218;DHT22;9234;49.344;11.120;2023-06-01T11:47:57;31.10;39.10
18218;DHT22;9234;49.344;11.120;2023-06-01T11:50:36;31.20;39.30
18218;DHT22;9234;49.344;11.120;2023-06-01T11:53:05;31.20;39.00
18218;DHT22;9234;49.344;11.120;2023-06-01T11:55:34;31.10;39.00
18218;DHT22;9234;49.344;11.120;2023-06-01T11:58:03;31.00;40.00
18218;DHT22;9234;49.344;11.120;2023-06-01T12:00:37;31.00;40.40
18218;DHT22;9234;49.344;11.120;2023-06-01T12:03:08;31.10;40.30
18218;DHT22;9234;49.344;11.120;2023-06-01T12:05:40;31.30;39.70
18218;DHT22;9234;49.344;11.120;2023-06-01T12:08:14;31.20;38.30
18218;DHT22;9234;49.344;11.120;2023-06-01T12:10:44;31.30;39.10
18218;DHT22;9234;49.344;11.120;2023-06-01T12:13:14;31.40;39.30
18218;DHT22;9234;49.344;11.120;2023-06-01T12:15:44;31.70;38.90
18218;DHT22;9234;49.344;11.120;2023-06-01T12:18:13;31.70;38.90
18218;DHT22;9234;49.344;11.120;2023-06-01T12:20:42;31.90;39.10
18218;DHT22;9234;49.344;11.120;2023-06-01T12:23:13;32.20;38.70
18218;DHT22;9234;49.344;11.120;2023-06-01T12:25:50;32.40;38.80
18218;DHT22;9234;49.344;11.120;2023-06-01T12:28:20;32.50;38.40
18218;DHT22;9234;49.344;11.120;2023-06-01T12:31:07;32.40;38.10
18218;DHT22;9234;49.344;11.120;2023-06-01T12:33:37;32.40;38.20
18218;DHT22;9234;49.344;11.120;2023-06-01T12:36:06;32.40;37.80
18218;DHT22;9234;49.344;11.120;2023-06-01T12:38:36;32.20;37.60
18218;DHT22;9234;49.344;11.120;2023-06-01T12:41:13;31.90;37.30
18218;DHT22;9234;49.344;11.120;2023-06-01T12:43:46;32.00;39.20
18218;DHT22;9234;49.344;11.120;2023-06-01T12:46:19;32.10;38.20
18218;DHT22;9234;49.344;11.120;2023-06-01T12:48:49;32.00;37.60
18218;DHT22;9234;49.344;11.120;2023-06-01T12:51:20;31.90;39.10
18218;DHT22;9234;49.344;11.120;2023-06-01T12:53:48;32.00;39.50
18218;DHT22;9234;49.344;11.120;2023-06-01T12:56:18;32.00;38.70
18218;DHT22;9234;49.344;11.120;2023-06-01T12:58:46;32.10;37.60
18218;DHT22;9234;49.344;11.120;2023-06-01T13:01:15;32.40;38.60
18218;DHT22;9234;49.344;11.120;2023-06-01T13:03:45;32.70;37.70
18218;DHT22;9234;49.344;11.120;2023-06-01T13:06:15;32.70;37.60
18218;DHT22;9234;49.344;11.120;2023-06-01T13:08:44;32.90;37.10
18218;DHT22;9234;49.344;11.120;2023-06-01T13:11:12;32.90;37.60
18218;DHT22;9234;49.344;11.120;2023-06-01T13:13:40;32.80;35.80
18218;DHT22;9234;49.344;11.120;2023-06-01T13:16:11;33.00;37.70
18218;DHT22;9234;49.344;11.120;2023-06-01T13:18:39;33.40;37.00
18218;DHT22;9234;49.344;11.120;2023-06-01T13:21:09;33.80;36.00
18218;DHT22;9234;49.344;11.120;2023-06-01T13:23:37;34.10;36.70
18218;DHT22;9234;49.344;11.120;2023-06-01T13:26:06;34.30;35.80
18218;DHT22;9234;49.344;11.120;2023-06-01T13:28:36;34.30;36.10
18218;DHT22;9234;49.344;11.120;2023-06-01T13:31:04;34.30;35.80
18218;DHT22;9234;49.344;11.120;2023-06-01T13:33:32;34.20;34.90
18218;DHT22;9234;49.344;11.120;2023-06-01T13:36:01;34.10;36.20
18218;DHT22;9234;49.344;11.120;2023-06-01T13:38:31;34.20;34.50
18218;DHT22;9234;49.344;11.120;2023-06-01T13:40:59;34.20;34.60
18218;DHT22;9234;49.344;11.120;2023-06-01T13:43:28;34.30;35.20
18218;DHT22;9234;49.344;11.120;2023-06-01T13:45:56;34.40;35.70
18218;DHT22;9234;49.344;11.120;2023-06-01T13:48:25;34.20;35.10
18218;DHT22;9234;49.344;11.120;2023-06-01T13:50:53;34.10;35.50
18218;DHT22;9234;49.344;11.120;2023-06-01T13:53:21;34.00;36.80
18218;DHT22;9234;49.344;11.120;2023-06-01T13:55:51;34.10;36.70
18218;DHT22;9234;49.344;11.120;2023-06-01T13:58:19;34.00;36.30
18218;DHT22;9234;49.344;11.120;2023-06-01T14:00:47;33.70;36.30
18218;DHT22;9234;49.344;11.120;2023-06-01T14:03:15;33.60;36.80
18218;DHT22;9234;49.344;11.120;2023-06-01T14:05:46;33.70;36.40
18218;DHT22;9234;49.344;11.120;2023-06-01T14:08:34;34.00;36.30
18218;DHT22;9234;49.344;11.120;2023-06-01T14:11:04;34.20;36.50
18218;DHT22;9234;49.344;11.120;2023-06-01T14:13:32;34.50;36.30
18218;DHT22;9234;49.344;11.120;2023-06-01T14:16:01;34.60;36.50
18218;DHT22;9234;49.344;11.120;2023-06-01T14:18:30;34.90;36.10
18218;DHT22;9234;49.344;11.120;2023-06-01T14:20:58;35.10;35.90
18218;DHT22;9234;49.344;11.120;2023-06-01T14:23:26;35.20;34.80
18218;DHT22;9234;49.344;11.120;2023-06-01T14:25:56;35.10;35.40
18218;DHT22;9234;49.344;11.120;2023-06-01T14:28:25;35.00;35.00
18218;DHT22;9234;49.344;11.120;2023-06-01T14:30:54;34.80;35.10
18218;DHT22;9234;49.344;11.120;2023-06-01T14:33:22;34.80;35.20
18218;DHT22;9234;49.344;11.120;2023-06-01T14:35:50;35.00;35.70
18218;DHT22;9234;49.344;11.120;2023-06-01T14:38:18;35.20;35.80
18218;DHT22;9234;49.344;11.120;2023-06-01T14:40:47;35.20;34.00
18218;DHT22;9234;49.344;11.120;2023-06-01T14:43:15;35.10;34.00
18218;DHT22;9234;49.344;11.120;2023-06-01T14:45:45;35.20;33.40
18218;DHT22;9234;49.344;11.120;2023-06-01T14:48:13;35.10;34.10
18218;DHT22;9234;49.344;11.120;2023-06-01T14:50:42;35.20;34.70
18218;DHT22;9234;49.344;11.120;2023-06-01T14:53:10;35.40;34.60
18218;DHT22;9234;49.344;11.120;2023-06-01T14:55:39;35.60;34.00
18218;DHT22;9234;49.344;11.120;2023-06-01T14:58:08;35.60;35.10
18218;DHT22;9234;49.344;11.120;2023-06-01T15:00:37;35.70;34.60
18218;DHT22;9234;49.344;11.120;2023-06-01T15:03:06;35.60;34.50
18218;DHT22;9234;49.344;11.120;2023-06-01T15:05:35;35.40;34.70
18218;DHT22;9234;49.344;11.120;2023-06-01T15:08:05;35.10;35.40
18218;DHT22;9234;49.344;11.120;2023-06-01T15:10:34;35.10;35.40
18218;DHT22;9234;49.344;11.120;2023-06-01T15:13:02;35.10;37.00
18218;DHT22;9234;49.344;11.120;2023-06-01T15:15:30;34.90;36.50
18218;DHT22;9234;49.344;11.120;2023-06-01T15:17:59;34.90;36.40
18218;DHT22;9234;49.344;11.120;2023-06-01T15:20:28;35.00;35.90
18218;DHT22;9234;49.344;11.120;2023-06-01T15:22:57;35.00;35.60
18218;DHT22;9234;49.344;11.120;2023-06-01T15:25:26;34.70;35.90
18218;DHT22;9234;49.344;11.120;2023-06-01T15:27:55;34.50;36.90
18218;DHT22;9234;49.344;11.120;2023-06-01T15:30:24;34.50;36.80
18218;DHT22;9234;49.344;11.120;2023-06-01T15:32:52;34.40;36.50
18218;DHT22;9234;49.344;11.120;2023-06-01T15:35:36;34.20;36.20
18218;DHT22;9234;49.344;11.120;2023-06-01T15:38:04;34.20;36.10
18218;DHT22;9234;49.344;11.120;2023-06-01T15:40:32;34.40;36.70
18218;DHT22;9234;49.344;11.120;2023-06-01T15:43:00;34.50;35.70
18218;DHT22;9234;49.344;11.120;2023-06-01T15:45:29;34.60;36.20
18218;DHT22;9234;49.344;11.120;2023-06-01T15:47:58;34.50;36.00
18218;DHT22;9234;49.344;11.120;2023-06-01T15:50:26;34.40;36.00
18218;DHT22;9234;49.344;11.120;2023-06-01T15:52:56;34.20;35.80
18218;DHT22;9234;49.344;11.120;2023-06-01T15:55:24;34.00;35.30
18218;DHT22;9234;49.344;11.120;2023-06-01T15:57:52;33.80;35.70